createdAt,value
2023-05-10T00:02:04.560Z,0.90
2023-05-10T00:04:34.428Z,0.98
2023-05-10T00:07:03.310Z,0.93
2023-05-10T00:09:33.161Z,1.00
2023-05-10T00:12:02.347Z,0.93
2023-05-10T00:14:32.021Z,0.70
2023-05-10T00:17:01.594Z,1.00
2023-05-10T00:19:31.802Z,0.88
2023-05-10T00:22:03.868Z,0.82
2023-05-10T00:24:33.168Z,0.70
2023-05-10T00:27:06.110Z,0.93
2023-05-10T00:29:35.868Z,1.10
2023-05-10T00:32:07.291Z,1.00
2023-05-10T00:34:39.898Z,0.70
2023-05-10T00:37:08.910Z,0.90
2023-05-10T00:39:37.960Z,1.15
2023-05-10T00:42:09.949Z,0.70
2023-05-10T00:44:39.795Z,0.80
2023-05-10T00:47:09.520Z,0.70
2023-05-10T00:49:38.779Z,0.80
2023-05-10T00:52:07.894Z,1.00
2023-05-10T00:54:37.318Z,0.80
2023-05-10T00:57:06.645Z,0.90
2023-05-10T00:59:36.022Z,1.00
2023-05-10T01:02:05.959Z,1.10
2023-05-10T01:04:36.646Z,1.02
2023-05-10T01:07:06.292Z,0.80
2023-05-10T01:09:36.096Z,1.00
2023-05-10T01:12:06.006Z,1.00
2023-05-10T01:14:42.081Z,0.90
2023-05-10T01:17:16.669Z,1.73
2023-05-10T01:19:45.766Z,0.80
2023-05-10T01:22:51.870Z,0.80
2023-05-10T01:26:23.498Z,0.98
2023-05-10T01:29:40.322Z,1.08
2023-05-10T01:32:30.001Z,1.02
2023-05-10T01:35:26.787Z,1.00
2023-05-10T01:38:18.539Z,1.23
2023-05-10T01:41:30.707Z,0.80
2023-05-10T01:44:37.928Z,0.80
2023-05-10T01:47:13.212Z,0.88
2023-05-10T01:49:55.558Z,0.70
2023-05-10T01:52:39.683Z,0.90
2023-05-10T01:55:14.249Z,0.95
2023-05-10T01:57:45.990Z,0.70
2023-05-10T02:00:17.233Z,0.80
2023-05-10T02:02:58.111Z,0.90
2023-05-10T02:05:38.224Z,0.68
2023-05-10T02:08:37.906Z,0.85
2023-05-10T02:14:52.018Z,0.80
2023-05-10T02:17:33.593Z,0.95
2023-05-10T02:20:12.662Z,1.00
2023-05-10T02:23:15.456Z,1.00
2023-05-10T02:25:58.140Z,0.85
2023-05-10T02:28:43.201Z,0.80
2023-05-10T02:31:30.037Z,0.90
2023-05-10T02:34:02.828Z,0.98
2023-05-10T02:36:40.251Z,0.93
2023-05-10T02:40:38.035Z,1.00
2023-05-10T02:45:06.799Z,0.80
2023-05-10T02:47:36.610Z,0.70
2023-05-10T02:50:07.598Z,1.23
2023-05-10T02:52:44.723Z,0.77
2023-05-10T02:56:29.437Z,0.88
2023-05-10T02:59:06.330Z,1.00
2023-05-10T03:01:38.693Z,0.82
2023-05-10T03:04:11.599Z,0.70
2023-05-10T03:06:41.825Z,1.00
2023-05-10T03:09:13.178Z,1.20
2023-05-10T03:12:03.994Z,0.90
2023-05-10T03:15:09.728Z,1.10
2023-05-10T03:18:01.040Z,0.90
2023-05-10T03:21:07.528Z,0.90
2023-05-10T03:23:58.685Z,0.85
2023-05-10T03:26:30.138Z,0.70
2023-05-10T03:29:10.833Z,0.75
2023-05-10T03:31:40.956Z,0.85
2023-05-10T03:34:39.400Z,0.57
2023-05-10T03:37:42.233Z,0.70
2023-05-10T03:40:25.018Z,0.90
2023-05-10T03:43:15.298Z,0.85
2023-05-10T03:45:47.635Z,0.80
2023-05-10T03:48:19.197Z,0.90
2023-05-10T03:50:48.418Z,0.80
2023-05-10T03:53:25.371Z,0.68
2023-05-10T03:55:54.399Z,0.90
2023-05-10T03:58:23.702Z,0.73
2023-05-10T04:01:04.426Z,1.05
2023-05-10T04:03:40.356Z,0.68
2023-05-10T04:06:14.216Z,0.70
2023-05-10T04:08:43.697Z,1.02
2023-05-10T04:11:15.593Z,0.80
2023-05-10T04:13:44.898Z,1.17
2023-05-10T04:16:16.203Z,1.05
2023-05-10T04:18:46.438Z,1.08
2023-05-10T04:21:15.872Z,0.90
2023-05-10T04:23:44.751Z,1.10
2023-05-10T04:26:15.321Z,1.20
2023-05-10T04:28:44.424Z,1.17
2023-05-10T04:31:18.059Z,1.10
2023-05-10T04:33:47.269Z,0.88
2023-05-10T04:36:18.605Z,0.95
2023-05-10T04:38:53.414Z,1.00
2023-05-10T04:41:30.841Z,0.93
2023-05-10T04:44:38.165Z,0.70
2023-05-10T04:47:07.346Z,1.05
2023-05-10T04:49:39.420Z,0.80
2023-05-10T04:52:31.157Z,1.00
2023-05-10T04:55:00.132Z,0.80
2023-05-10T04:57:29.048Z,0.80
2023-05-10T05:00:05.953Z,1.33
2023-05-10T05:02:35.579Z,0.95
2023-05-10T05:05:04.751Z,0.70
2023-05-10T05:07:36.228Z,0.90
2023-05-10T05:10:05.753Z,1.27
2023-05-10T05:12:37.355Z,0.93
2023-05-10T05:15:12.144Z,0.98
2023-05-10T05:17:43.291Z,1.00
2023-05-10T05:20:13.010Z,0.93
2023-05-10T05:22:45.530Z,1.20
2023-05-10T05:25:16.080Z,1.30
2023-05-10T05:27:45.412Z,1.20
2023-05-10T05:30:14.781Z,1.38
2023-05-10T05:32:48.836Z,1.38
2023-05-10T05:35:19.717Z,1.35
2023-05-10T05:37:56.630Z,1.25
2023-05-10T05:40:28.735Z,1.25
2023-05-10T05:43:10.198Z,1.10
2023-05-10T05:45:42.536Z,1.38
2023-05-10T05:48:14.910Z,1.80
2023-05-10T05:50:52.786Z,1.20
2023-05-10T05:53:22.503Z,1.40
2023-05-10T05:55:59.824Z,1.10
2023-05-10T05:58:29.754Z,1.20
2023-05-10T06:01:01.288Z,1.08
2023-05-10T06:03:30.895Z,0.90
2023-05-10T06:06:00.077Z,1.10
2023-05-10T06:08:29.399Z,1.10
2023-05-10T06:10:58.494Z,1.05
2023-05-10T06:13:30.780Z,1.10
2023-05-10T06:16:03.584Z,1.10
2023-05-10T06:18:33.448Z,1.08
2023-05-10T06:21:03.389Z,1.63
2023-05-10T06:23:32.526Z,2.20
2023-05-10T06:26:02.377Z,1.90
2023-05-10T06:28:33.152Z,2.13
2023-05-10T06:31:02.603Z,1.38
2023-05-10T06:33:31.844Z,1.45
2023-05-10T06:36:00.854Z,1.20
2023-05-10T06:38:29.856Z,1.23
2023-05-10T06:40:59.335Z,1.38
2023-05-10T06:43:30.309Z,1.23
2023-05-10T06:45:59.598Z,1.17
2023-05-10T06:48:28.722Z,0.85
2023-05-10T06:50:57.722Z,1.02
2023-05-10T06:53:26.945Z,1.30
2023-05-10T06:56:11.060Z,1.42
2023-05-10T06:58:58.195Z,1.08
2023-05-10T07:04:27.108Z,0.98
2023-05-10T07:06:57.508Z,1.10
2023-05-10T07:09:26.659Z,1.20
2023-05-10T07:11:55.635Z,1.13
2023-05-10T07:14:24.752Z,1.20
2023-05-10T07:16:53.685Z,1.20
2023-05-10T07:19:22.764Z,1.10
2023-05-10T07:21:52.633Z,1.27
2023-05-10T07:24:21.549Z,1.10
2023-05-10T07:26:50.580Z,1.55
2023-05-10T07:29:19.565Z,1.40
2023-05-10T07:31:48.467Z,1.10
2023-05-10T07:34:17.869Z,1.00
2023-05-10T07:36:47.046Z,1.27
2023-05-10T07:39:21.335Z,1.38
2023-05-10T07:41:56.953Z,1.30
2023-05-10T07:44:25.956Z,1.33
2023-05-10T07:46:55.078Z,1.52
2023-05-10T07:49:26.066Z,1.20
2023-05-10T07:51:55.423Z,1.30
2023-05-10T07:54:24.715Z,1.20
2023-05-10T07:56:53.908Z,1.20
2023-05-10T07:59:23.214Z,1.15
2023-05-10T08:01:54.555Z,1.27
2023-05-10T08:04:24.028Z,1.17
2023-05-10T08:06:54.250Z,1.55
2023-05-10T08:09:25.796Z,1.45
2023-05-10T08:11:55.153Z,1.55
2023-05-10T08:14:24.570Z,1.70
2023-05-10T08:16:53.451Z,1.48
2023-05-10T08:19:23.236Z,1.83
2023-05-10T08:21:52.768Z,1.63
2023-05-10T08:24:21.650Z,2.05
2023-05-10T08:26:50.729Z,1.50
2023-05-10T08:29:19.734Z,1.40
2023-05-10T08:31:48.748Z,1.63
2023-05-10T08:34:17.744Z,1.30
2023-05-10T08:36:47.579Z,1.63
2023-05-10T08:39:29.201Z,1.30
2023-05-10T08:42:03.562Z,1.40
2023-05-10T08:44:38.267Z,1.15
2023-05-10T08:47:09.116Z,1.33
2023-05-10T08:49:39.800Z,1.38
2023-05-10T08:52:10.278Z,1.45
2023-05-10T08:54:40.143Z,1.50
2023-05-10T08:57:09.376Z,1.60
2023-05-10T08:59:41.835Z,1.50
2023-05-10T09:02:14.261Z,2.08
2023-05-10T09:04:45.428Z,1.80
2023-05-10T09:07:15.356Z,1.27
2023-05-10T09:09:44.873Z,1.67
2023-05-10T09:12:18.126Z,1.45
2023-05-10T09:14:47.607Z,2.38
2023-05-10T09:17:16.686Z,1.13
2023-05-10T09:19:47.474Z,1.38
2023-05-10T09:22:16.764Z,1.38
2023-05-10T09:24:47.110Z,1.80
2023-05-10T09:27:16.785Z,1.38
2023-05-10T09:29:46.923Z,1.38
2023-05-10T09:32:17.181Z,1.20
2023-05-10T09:34:46.771Z,1.60
2023-05-10T09:37:16.080Z,1.60
2023-05-10T09:39:45.150Z,1.38
2023-05-10T09:42:14.840Z,1.60
2023-05-10T09:44:45.307Z,1.50
2023-05-10T09:47:20.751Z,1.67
2023-05-10T09:49:53.253Z,1.30
2023-05-10T09:52:22.162Z,1.75
2023-05-10T09:54:57.709Z,1.60
2023-05-10T09:57:27.802Z,1.52
2023-05-10T09:59:57.025Z,1.67
2023-05-10T10:02:31.181Z,1.77
2023-05-10T10:05:02.897Z,1.35
2023-05-10T10:07:32.181Z,1.58
2023-05-10T10:10:02.149Z,1.60
2023-05-10T10:12:32.249Z,1.55
2023-05-10T10:15:03.185Z,1.55
2023-05-10T10:17:34.840Z,1.95
2023-05-10T10:20:05.584Z,1.65
2023-05-10T10:22:34.799Z,1.65
2023-05-10T10:25:04.122Z,1.80
2023-05-10T10:28:12.487Z,2.00
2023-05-10T10:30:47.989Z,1.60
2023-05-10T10:33:34.971Z,1.73
2023-05-10T10:36:06.062Z,1.88
2023-05-10T10:38:50.335Z,1.90
2023-05-10T10:41:33.906Z,2.03
2023-05-10T10:44:24.580Z,1.98
2023-05-10T10:47:25.043Z,1.55
2023-05-10T10:50:03.396Z,1.83
2023-05-10T10:52:38.359Z,1.52
2023-05-10T10:55:13.111Z,1.77
2023-05-10T10:57:58.352Z,1.92
2023-05-10T11:01:08.402Z,1.60
2023-05-10T11:04:03.301Z,1.70
2023-05-10T11:06:37.412Z,1.83
2023-05-10T11:09:11.733Z,1.50
2023-05-10T11:11:57.168Z,1.90
2023-05-10T11:14:26.535Z,1.50
2023-05-10T11:16:55.828Z,1.80
2023-05-10T11:19:30.385Z,2.10
2023-05-10T11:22:08.591Z,2.05
2023-05-10T11:24:37.678Z,1.65
2023-05-10T11:27:07.620Z,1.80
2023-05-10T11:29:37.669Z,1.75
2023-05-10T11:32:09.985Z,1.83
2023-05-10T11:34:38.988Z,1.45
2023-05-10T11:37:07.856Z,2.08
2023-05-10T11:39:37.234Z,1.88
2023-05-10T11:42:06.299Z,1.70
2023-05-10T11:44:35.430Z,1.60
2023-05-10T11:47:04.947Z,1.92
2023-05-10T11:49:34.014Z,2.00
2023-05-10T11:52:09.991Z,2.60
2023-05-10T11:54:39.121Z,1.88
2023-05-10T11:57:08.519Z,1.75
2023-05-10T11:59:38.458Z,1.60
2023-05-10T12:02:07.754Z,1.80
2023-05-10T12:04:37.003Z,1.42
2023-05-10T12:07:06.863Z,1.92
2023-05-10T12:09:43.805Z,2.20
2023-05-10T12:12:19.415Z,1.70
2023-05-10T12:14:53.045Z,2.10
2023-05-10T12:17:22.014Z,1.70
2023-05-10T12:19:51.049Z,1.60
2023-05-10T12:22:23.588Z,1.42
2023-05-10T12:24:52.752Z,1.58
2023-05-10T12:27:21.855Z,1.60
2023-05-10T12:29:50.701Z,1.60
2023-05-10T12:32:20.065Z,1.52
2023-05-10T12:34:51.489Z,1.92
2023-05-10T12:37:28.000Z,1.60
2023-05-10T12:39:57.154Z,1.88
2023-05-10T12:42:26.798Z,1.85
2023-05-10T12:44:59.317Z,1.95
2023-05-10T12:47:28.075Z,1.50
2023-05-10T12:49:56.800Z,1.80
2023-05-10T12:52:27.171Z,1.60
2023-05-10T12:54:56.328Z,1.98
2023-05-10T12:57:26.114Z,1.92
2023-05-10T12:59:55.108Z,1.42
2023-05-10T13:02:25.090Z,1.73
2023-05-10T13:04:55.243Z,1.80
2023-05-10T13:07:24.220Z,1.95
2023-05-10T13:09:53.707Z,1.58
2023-05-10T13:12:22.529Z,1.58
2023-05-10T13:14:51.432Z,1.75
2023-05-10T13:17:20.271Z,1.50
2023-05-10T13:19:49.002Z,1.50
2023-05-10T13:22:25.661Z,1.60
2023-05-10T13:25:01.819Z,1.60
2023-05-10T13:27:30.849Z,1.80
2023-05-10T13:30:01.015Z,1.38
2023-05-10T13:32:32.516Z,1.50
2023-05-10T13:35:01.609Z,1.35
2023-05-10T13:37:31.143Z,1.73
2023-05-10T13:40:00.093Z,1.60
2023-05-10T13:42:29.359Z,1.50
2023-05-10T13:44:58.286Z,1.42
2023-05-10T13:47:27.081Z,1.67
2023-05-10T13:49:55.964Z,1.50
2023-05-10T13:52:24.814Z,1.88
2023-05-10T13:54:56.460Z,1.50
2023-05-10T13:57:25.877Z,1.63
2023-05-10T13:59:57.016Z,2.00
2023-05-10T14:02:27.563Z,1.48
2023-05-10T14:04:56.718Z,1.58
2023-05-10T14:07:25.854Z,1.70
2023-05-10T14:09:55.736Z,1.65
2023-05-10T14:12:25.014Z,1.70
2023-05-10T14:14:54.228Z,1.33
2023-05-10T14:17:23.989Z,1.58
2023-05-10T14:19:54.202Z,1.60
2023-05-10T14:22:23.650Z,1.88
2023-05-10T14:24:52.709Z,1.90
2023-05-10T14:27:21.660Z,1.73
2023-05-10T14:29:50.437Z,1.85
2023-05-10T14:32:20.420Z,1.63
2023-05-10T14:34:50.246Z,1.88
2023-05-10T14:37:19.797Z,2.05
2023-05-10T14:39:49.292Z,1.95
2023-05-10T14:42:18.667Z,1.80
2023-05-10T14:44:47.425Z,1.83
2023-05-10T14:47:16.936Z,1.52
2023-05-10T14:49:46.272Z,2.25
2023-05-10T14:52:16.068Z,1.67
2023-05-10T14:54:45.046Z,2.00
2023-05-10T14:57:14.439Z,1.73
2023-05-10T14:59:43.880Z,1.70
2023-05-10T15:02:13.269Z,2.00
2023-05-10T15:04:42.672Z,1.90
2023-05-10T15:07:15.953Z,1.33
2023-05-10T15:09:44.927Z,1.80
2023-05-10T15:12:14.135Z,1.63
2023-05-10T15:14:43.080Z,1.83
2023-05-10T15:17:12.134Z,1.85
2023-05-10T15:19:41.048Z,1.60
2023-05-10T15:22:09.956Z,1.45
2023-05-10T15:24:38.980Z,1.80
2023-05-10T15:27:08.005Z,1.83
2023-05-10T15:29:37.724Z,1.70
2023-05-10T15:32:06.684Z,1.52
2023-05-10T15:34:37.002Z,1.48
2023-05-10T15:37:06.452Z,1.60
2023-05-10T15:39:35.344Z,1.35
2023-05-10T15:42:05.343Z,1.50
2023-05-10T15:44:36.652Z,1.65
2023-05-10T15:47:06.828Z,1.40
2023-05-10T15:49:36.788Z,1.52
2023-05-10T15:52:07.559Z,1.88
2023-05-10T15:54:36.596Z,1.70
2023-05-10T15:57:06.016Z,1.70
2023-05-10T15:59:36.606Z,1.55
2023-05-10T16:02:06.785Z,1.70
2023-05-10T16:04:36.695Z,1.35
2023-05-10T16:07:06.100Z,1.50
2023-05-10T16:09:35.997Z,1.60
2023-05-10T16:12:05.421Z,1.30
2023-05-10T16:14:34.452Z,1.55
2023-05-10T16:17:07.898Z,1.80
2023-05-10T16:19:37.090Z,1.35
2023-05-10T16:22:06.651Z,1.70
2023-05-10T16:24:35.949Z,1.25
2023-05-10T16:27:05.170Z,2.03
2023-05-10T16:29:34.196Z,1.40
2023-05-10T16:32:03.577Z,1.30
2023-05-10T16:34:33.217Z,1.63
2023-05-10T16:37:02.471Z,1.50
2023-05-10T16:39:31.472Z,1.65
2023-05-10T16:42:00.520Z,1.38
2023-05-10T16:44:29.600Z,1.27
2023-05-10T16:46:58.780Z,1.13
2023-05-10T16:49:27.807Z,1.38
2023-05-10T16:51:57.187Z,1.50
2023-05-10T16:54:26.868Z,1.20
2023-05-10T16:56:56.113Z,1.50
2023-05-10T16:59:25.100Z,1.25
2023-05-10T17:01:54.780Z,1.20
2023-05-10T17:04:24.125Z,1.90
2023-05-10T17:06:53.120Z,1.45
2023-05-10T17:09:25.237Z,2.20
2023-05-10T17:11:54.445Z,1.52
2023-05-10T17:14:24.293Z,1.50
2023-05-10T17:16:53.920Z,1.30
2023-05-10T17:19:25.604Z,1.30
2023-05-10T17:21:55.412Z,1.20
2023-05-10T17:24:24.620Z,1.00
2023-05-10T17:26:53.661Z,1.20
2023-05-10T17:29:22.660Z,1.15
2023-05-10T17:31:51.678Z,1.20
2023-05-10T17:34:21.328Z,1.20
2023-05-10T17:36:50.458Z,1.73
2023-05-10T17:39:19.694Z,1.30
2023-05-10T17:41:48.948Z,1.30
2023-05-10T17:44:19.548Z,1.15
2023-05-10T17:46:48.755Z,1.50
2023-05-10T17:49:17.703Z,1.35
2023-05-10T17:51:48.901Z,1.25
2023-05-10T17:54:18.733Z,1.35
2023-05-10T17:56:47.762Z,1.92
2023-05-10T17:59:17.128Z,1.38
2023-05-10T18:01:46.331Z,1.38
2023-05-10T18:04:15.477Z,1.40
2023-05-10T18:06:45.196Z,0.95
2023-05-10T18:09:14.732Z,1.15
2023-05-10T18:11:43.747Z,1.20
2023-05-10T18:14:13.079Z,1.10
2023-05-10T18:16:43.939Z,1.25
2023-05-10T18:19:13.083Z,1.40
2023-05-10T18:21:42.495Z,1.30
2023-05-10T18:24:12.354Z,2.15
2023-05-10T18:26:41.709Z,1.40
2023-05-10T18:29:13.062Z,1.30
2023-05-10T18:31:44.236Z,1.27
2023-05-10T18:34:16.397Z,1.10
2023-05-10T18:36:50.216Z,1.30
2023-05-10T18:39:19.400Z,1.23
2023-05-10T18:41:48.660Z,1.52
2023-05-10T18:44:17.777Z,1.35
2023-05-10T18:46:48.195Z,1.25
2023-05-10T18:49:17.881Z,1.30
2023-05-10T18:51:47.686Z,1.55
2023-05-10T18:54:16.711Z,1.40
2023-05-10T18:56:46.187Z,1.63
2023-05-10T18:59:15.483Z,1.30
2023-05-10T19:01:45.638Z,1.35
2023-05-10T19:04:15.306Z,1.50
2023-05-10T19:06:44.315Z,1.00
2023-05-10T19:09:13.622Z,1.60
2023-05-10T19:11:44.304Z,1.13
2023-05-10T19:14:13.734Z,1.23
2023-05-10T19:16:42.911Z,1.45
2023-05-10T19:19:14.268Z,1.33
2023-05-10T19:21:43.948Z,1.52
2023-05-10T19:24:14.255Z,1.40
2023-05-10T19:26:48.465Z,1.40
2023-05-10T19:29:17.795Z,0.85
2023-05-10T19:31:47.367Z,1.17
2023-05-10T19:34:17.252Z,1.10
2023-05-10T19:39:15.559Z,1.40
2023-05-10T19:41:45.202Z,1.23
2023-05-10T19:47:20.943Z,1.23
2023-05-10T19:49:50.602Z,1.50
2023-05-10T19:52:23.534Z,1.05
2023-05-10T19:54:52.581Z,1.15
2023-05-10T19:57:22.526Z,1.20
2023-05-10T19:59:51.763Z,0.90
2023-05-10T20:02:21.349Z,1.50
2023-05-10T20:04:50.977Z,1.05
2023-05-10T20:07:20.360Z,0.90
2023-05-10T20:09:49.628Z,1.00
2023-05-10T20:12:19.024Z,0.93
2023-05-10T20:14:50.956Z,1.02
2023-05-10T20:17:20.691Z,2.97
2023-05-10T20:19:50.120Z,0.93
2023-05-10T20:22:25.299Z,0.77
2023-05-10T20:25:02.114Z,0.90
2023-05-10T20:27:31.457Z,0.98
2023-05-10T20:30:00.980Z,1.08
2023-05-10T20:32:33.405Z,0.90
2023-05-10T20:35:05.473Z,0.90
2023-05-10T20:37:34.854Z,1.13
2023-05-10T20:40:05.647Z,1.48
2023-05-10T20:42:34.919Z,1.10
2023-05-10T20:45:09.294Z,1.10
2023-05-10T20:47:40.878Z,1.10
2023-05-10T20:50:10.427Z,1.00
2023-05-10T20:52:39.662Z,1.10
2023-05-10T20:55:11.775Z,0.90
2023-05-10T20:57:44.086Z,1.30
2023-05-10T21:00:16.944Z,1.00
2023-05-10T21:02:47.331Z,1.10
2023-05-10T21:05:18.413Z,1.00
2023-05-10T21:07:48.470Z,1.20
2023-05-10T21:10:18.065Z,1.30
2023-05-10T21:12:47.770Z,1.10
2023-05-10T21:15:16.946Z,1.20
2023-05-10T21:17:52.681Z,1.40
2023-05-10T21:20:31.864Z,1.10
2023-05-10T21:23:18.276Z,0.80
2023-05-10T21:25:57.335Z,1.10
2023-05-10T21:28:28.665Z,1.23
2023-05-10T21:31:07.263Z,0.90
2023-05-10T21:33:45.864Z,1.25
2023-05-10T21:36:19.900Z,1.17
2023-05-10T21:38:51.187Z,1.20
2023-05-10T21:41:20.436Z,1.42
2023-05-10T21:43:52.371Z,1.08
2023-05-10T21:46:25.189Z,1.55
2023-05-10T21:48:57.189Z,1.25
2023-05-10T21:51:34.508Z,1.15
2023-05-10T21:54:22.414Z,1.50
2023-05-10T21:56:51.825Z,1.38
2023-05-10T21:59:24.318Z,0.95
2023-05-10T22:01:54.038Z,1.25
2023-05-10T22:04:27.515Z,1.00
2023-05-10T22:07:41.965Z,1.25
2023-05-10T22:09:54.391Z,1.00
2023-05-10T22:12:29.731Z,1.15
2023-05-10T22:15:09.509Z,1.13
2023-05-10T22:17:47.856Z,1.20
2023-05-10T22:20:23.082Z,1.02
2023-05-10T22:22:52.858Z,0.88
2023-05-10T22:25:23.195Z,0.88
2023-05-10T22:27:52.804Z,1.20
2023-05-10T22:30:32.173Z,1.17
2023-05-10T22:33:02.503Z,0.70
2023-05-10T22:35:38.607Z,1.08
2023-05-10T22:38:07.736Z,0.90
2023-05-10T22:40:40.095Z,0.95
2023-05-10T22:43:11.834Z,1.05
2023-05-10T22:45:41.551Z,1.08
2023-05-10T22:48:11.249Z,1.02
2023-05-10T22:50:43.417Z,0.80
2023-05-10T22:53:12.580Z,0.80
2023-05-10T22:55:42.114Z,0.80
2023-05-10T22:58:14.917Z,0.70
2023-05-10T23:00:45.014Z,1.08
2023-05-10T23:03:14.750Z,0.80
2023-05-10T23:05:54.462Z,0.70
2023-05-10T23:08:25.908Z,1.15
2023-05-10T23:10:55.721Z,0.88
2023-05-10T23:13:28.378Z,1.02
2023-05-10T23:16:11.004Z,0.93
2023-05-10T23:18:40.924Z,0.82
2023-05-10T23:21:20.795Z,0.95
2023-05-10T23:23:53.403Z,0.60
2023-05-10T23:26:24.778Z,0.70
2023-05-10T23:28:54.067Z,0.90
2023-05-10T23:31:30.344Z,0.75
2023-05-10T23:33:59.591Z,0.90
2023-05-10T23:37:42.747Z,0.82
2023-05-10T23:41:57.310Z,0.77
2023-05-10T23:43:43.415Z,1.08
2023-05-10T23:46:59.087Z,0.75
2023-05-10T23:49:46.862Z,0.70
2023-05-10T23:52:32.782Z,0.60
2023-05-10T23:55:53.823Z,0.77
